Latest Weather Observations for Burketown Airport

IDQ60801

Issued at 9:32 pm EST Wednesday 27 May 2015 (issued every 30 minutes, with the page automatically refreshed every 10 minutes)

About weather observations | Map of weather stations | Latest weather observations for QLD | Other Formats
Station Details ID: 029077 Name: BURKETOWN AIRPORT Lat: -17.75 Lon: 139.54 Height: 5.7 m
Data from the previous 72 hours. | See also: Recent months at Burketown Airport
Date/Time
EST
Temp
°C
App
Temp
°C
Dew
Point
Rel
Hum
%
Delta-T
°C
Wind Press
QNH
hPa
Press
MSL
hPa
Rain
since 9 am
mm
Dir
 
Spd
km/h
Gust
km/h
Spd
kts
Gust
kts
27/09:30pm 20.5 19.6 13.7 65 3.9 W 11 11 6 6 1015.0 - 0.0
27/09:00pm 21.6 21.0 13.5 60 4.7 NNW 9 11 5 6 1014.9 1014.8 0.0
27/08:30pm 21.6 20.5 13.0 58 4.9 NNW 11 13 6 7 1014.6 - 0.0
27/08:00pm 22.3 21.7 13.4 57 5.1 NNW 9 11 5 6 1014.1 - 0.0
27/07:30pm 23.1 22.5 13.6 55 5.5 NNW 9 11 5 6 1013.7 - 0.0
27/07:00pm 23.9 22.9 13.4 51 6.1 NNW 11 13 6 7 1013.5 - 0.0
27/06:30pm 25.5 24.3 14.0 49 6.8 N 13 15 7 8 1013.4 - 0.0
27/06:00pm 27.6 26.4 13.9 43 8.2 N 13 17 7 9 1013.1 1013.0 0.0
27/05:30pm 29.0 26.9 13.6 38 9.2 N 17 22 9 12 1013.1 - 0.0
27/05:00pm 29.8 28.8 13.5 36 9.7 NNW 11 17 6 9 1013.0 - 0.0
27/04:30pm 29.9 29.0 13.6 36 9.8 NNW 11 17 6 9 1013.0 - 0.0
27/04:00pm 29.8 28.8 13.5 36 9.7 NNE 11 17 6 9 1013.2 - 0.0
27/03:30pm 30.2 29.0 13.9 37 9.8 N 13 19 7 10 1013.7 - 0.0
27/03:00pm 30.2 28.7 14.3 38 9.6 NE 15 22 8 12 1014.1 1014.0 0.0
27/02:30pm 29.8 27.8 14.0 38 9.5 N 17 24 9 13 1014.4 - 0.0
27/02:00pm 30.2 28.0 14.3 38 9.6 NE 19 30 10 16 1014.7 - 0.0
27/01:30pm 29.8 28.0 14.4 39 9.3 NE 17 30 9 16 1015.1 - 0.0
27/01:00pm 29.4 26.4 13.6 38 9.4 ENE 22 28 12 15 1015.8 - 0.0
27/12:30pm 29.3 26.6 14.7 41 8.9 ENE 22 30 12 16 1016.4 - 0.0
27/12:00pm 28.8 25.9 15.0 43 8.4 ENE 24 35 13 19 1016.9 1016.8 0.0
27/11:30am 29.1 26.6 15.2 42 8.5 ENE 22 30 12 16 1017.4 - 0.0
27/11:00am 29.0 26.1 15.2 43 8.4 ENE 24 35 13 19 1017.7 - 0.0
27/10:30am 28.5 25.7 15.4 45 8.0 ENE 24 33 13 18 1018.2 - 0.0
27/10:00am 27.6 25.0 14.9 45 7.7 E 22 32 12 17 1018.4 - 0.0
27/09:30am 26.3 23.7 13.1 44 7.7 E 19 26 10 14 1018.3 - 0.0
27/09:00am 24.9 22.0 12.2 45 7.3 ESE 19 24 10 13 1018.0 1017.9 0.0
27/08:30am 22.9 20.2 10.3 45 6.9 SE 15 19 8 10 1017.8 - 0.0
27/08:00am 20.9 18.1 10.1 50 5.8 SSE 15 19 8 10 1017.6 - 0.0
27/07:30am 19.4 16.6 9.9 54 5.1 SSE 15 17 8 9 1017.1 - 0.0
27/07:00am 18.6 15.8 9.9 57 4.6 SSE 15 17 8 9 1016.6 - 0.0
27/06:30am 19.0 16.1 9.8 55 4.9 SSE 15 17 8 9 1016.3 - 0.0
27/06:00am 20.1 17.0 10.2 53 5.3 SE 17 20 9 11 1015.9 1015.8 0.0
27/05:30am 19.2 16.5 10.2 56 4.8 SE 15 17 8 9 1015.7 - 0.0
27/05:00am 19.8 17.1 10.2 54 5.2 SSE 15 17 8 9 1015.5 - 0.0
27/04:30am 20.1 17.4 10.5 54 5.2 S 15 17 8 9 1015.6 - 0.0
27/04:00am 20.8 18.2 10.6 52 5.6 SSE 15 19 8 10 1015.7 - 0.0
27/03:30am 21.1 18.6 10.9 52 5.6 SSE 15 17 8 9 1015.7 - 0.0
27/03:00am 21.5 19.0 10.9 51 5.8 SSE 15 20 8 11 1015.7 1015.6 0.0
27/02:30am 21.7 19.2 11.1 51 5.9 SSE 15 19 8 10 1015.9 - 0.0
27/02:00am 21.9 19.5 11.3 51 5.9 SSE 15 17 8 9 1016.2 - 0.0
27/01:30am 22.2 20.1 11.3 50 6.1 SSE 13 17 7 9 1016.4 - 0.0
27/01:00am 22.0 19.6 11.4 51 5.9 S 15 17 8 9 1016.5 - 0.0
27/12:30am 21.3 19.2 11.3 53 5.5 S 13 15 7 8 1016.6 - 0.0
27/12:00am 22.3 21.2 12.0 52 5.8 SSE 9 11 5 6 1016.7 1016.6 0.0
 
Date/Time
EST
Temp
°C
App
Temp
°C
Dew
Point
Rel
Hum
%
Delta-T
°C
Wind Press
QNH
hPa
Press
MSL
hPa
Rain
since 9 am
mm
Dir
 
Spd
km/h
Gust
km/h
Spd
kts
Gust
kts
26/11:30pm 19.7 19.0 12.0 61 4.3 SSW 7 9 4 5 1016.9 - 0.0
26/11:00pm 21.0 20.7 13.2 61 4.5 WSW 7 9 4 5 1017.0 - 0.0
26/10:30pm 21.0 20.0 12.4 58 4.8 SW 9 11 5 6 1016.9 - 0.0
26/10:00pm 21.2 19.8 12.3 57 5.0 SW 11 13 6 7 1016.8 - 0.0
26/09:30pm 21.2 20.5 12.1 56 5.1 W 7 7 4 4 1016.6 - 0.0
26/09:00pm 22.0 21.6 12.5 54 5.4 WNW 6 13 3 7 1016.5 1016.4 0.0
26/08:30pm 23.4 22.6 13.0 52 6.0 WSW 9 9 5 5 1016.4 - 0.0
26/08:00pm 23.7 23.0 13.3 52 6.0 WNW 9 11 5 6 1016.2 - 0.0
26/07:30pm 23.0 22.0 12.3 51 6.1 NW 9 13 5 7 1016.0 - 0.0
26/07:00pm 24.4 23.2 12.7 48 6.7 NNW 11 13 6 7 1015.5 - 0.0
26/06:30pm 25.9 24.7 12.7 44 7.7 N 11 13 6 7 1015.1 - 0.0
26/06:00pm 28.4 26.9 13.1 39 9.0 N 13 17 7 9 1015.1 1015.0 0.0
26/05:30pm 30.1 28.2 13.0 35 10.1 N 15 19 8 10 1014.8 - 0.0
26/05:00pm 30.8 29.3 13.1 34 10.5 NNE 13 17 7 9 1014.7 - 0.0
26/04:30pm 31.1 29.5 12.9 32 10.8 NNE 13 20 7 11 1014.7 - 0.0
26/04:00pm 31.0 28.3 12.8 32 10.8 N 19 24 10 13 1014.8 - 0.0
26/03:30pm 31.1 29.5 12.9 32 10.8 N 13 20 7 11 1015.0 - 0.0
26/03:00pm 31.1 28.8 12.9 32 10.8 NNE 17 24 9 13 1015.2 1015.1 0.0
26/02:30pm 31.2 29.3 13.0 33 10.8 NNE 15 26 8 14 1015.7 - 0.0
26/02:00pm 31.3 28.7 13.1 33 10.9 NE 19 30 10 16 1016.3 - 0.0
26/01:30pm 30.8 28.2 13.1 34 10.5 E 19 28 10 15 1016.9 - 0.0
26/01:00pm 30.5 27.8 12.9 34 10.4 E 19 28 10 15 1017.5 - 0.0
26/12:30pm 30.8 28.5 14.0 36 10.1 ENE 19 28 10 15 1018.1 - 0.0
26/12:00pm 30.3 27.5 14.4 38 9.6 ENE 22 30 12 16 1018.6 1018.5 0.0
26/11:30am 29.4 26.3 14.4 40 9.1 ENE 24 32 13 17 1018.9 - 0.0
26/11:00am 29.2 25.7 14.6 41 8.8 E 26 33 14 18 1019.0 - 0.0
26/10:30am 28.5 24.7 14.7 43 8.4 ENE 28 37 15 20 1019.5 - 0.0
26/10:00am 28.3 24.2 14.9 44 8.1 ENE 30 43 16 23 1019.7 - 0.0
26/09:30am 26.8 23.2 14.2 46 7.5 E 26 35 14 19 1019.7 - 0.0
26/09:00am 25.6 22.6 13.8 48 6.9 E 22 30 12 16 1019.7 1019.6 0.0
26/08:30am 24.4 21.6 13.3 50 6.5 E 20 30 11 16 1019.6 - 0.0
26/08:00am 22.0 20.5 12.0 53 5.6 SE 11 13 6 7 1019.5 - 0.0
26/07:30am 20.3 18.8 11.8 58 4.7 SE 11 13 6 7 1019.3 - 0.0
26/07:00am 20.0 18.4 11.5 58 4.7 SE 11 13 6 7 1018.9 - 0.0
26/06:30am 20.0 18.4 11.5 58 4.7 SE 11 13 6 7 1018.7 - 0.0
26/06:00am 19.9 18.0 11.7 59 4.5 SE 13 15 7 8 1018.4 1018.3 0.0
26/05:30am 19.9 18.0 11.7 59 4.5 SSE 13 13 7 7 1018.1 - 0.0
26/05:00am 20.3 18.3 11.5 57 4.9 SSE 13 15 7 8 1018.0 - 0.0
26/04:30am 21.1 18.8 11.7 55 5.2 SSE 15 17 8 9 1017.7 - 0.0
26/04:00am 21.8 19.6 12.1 54 5.5 SSE 15 17 8 9 1017.6 - 0.0
26/03:30am 21.6 19.6 12.7 57 5.1 SSE 15 17 8 9 1017.8 - 0.0
26/03:00am 21.6 20.5 13.0 58 4.9 SSE 11 13 6 7 1017.9 1017.8 0.0
26/02:30am 21.7 20.2 13.1 58 4.9 S 13 15 7 8 1018.0 - 0.0
26/02:00am 22.1 20.4 13.7 59 4.9 SSW 15 17 8 9 1018.3 - 0.0
26/01:30am 22.5 21.1 14.4 60 4.8 SSW 15 19 8 10 1018.4 - 0.0
26/01:00am 22.3 20.5 14.4 61 4.6 SSW 17 19 9 10 1018.4 - 0.0
26/12:30am 21.2 19.8 14.4 65 4.0 SSW 15 17 8 9 1018.5 - 0.0
26/12:00am 21.5 20.9 14.6 65 4.0 SSW 11 13 6 7 1018.5 1018.4 0.0
 
Date/Time
EST
Temp
°C
App
Temp
°C
Dew
Point
Rel
Hum
%
Delta-T
°C
Wind Press
QNH
hPa
Press
MSL
hPa
Rain
since 9 am
mm
Dir
 
Spd
km/h
Gust
km/h
Spd
kts
Gust
kts
25/11:30pm 21.1 20.1 14.7 67 3.8 WSW 13 15 7 8 1018.4 - 0.0
25/11:00pm 20.6 19.4 14.0 66 3.8 WSW 13 13 7 7 1018.6 - 0.0
25/10:30pm 20.9 20.3 14.5 67 3.7 WSW 11 11 6 6 1018.6 - 0.0
25/10:00pm 21.3 21.2 14.0 63 4.2 W 7 9 4 5 1018.6 - 0.0
25/09:30pm 21.0 20.4 13.4 62 4.4 WNW 9 11 5 6 1018.3 - 0.0
25/09:00pm 21.5 20.9 13.4 60 4.6 NW 9 11 5 6 1018.2 1018.1 0.0
25/08:30pm 22.7 22.0 14.3 59 4.9 NNW 11 13 6 7 1017.9 - 0.0
25/08:00pm 23.3 23.1 14.6 58 5.1 NW 9 11 5 6 1017.3 - 0.0
25/07:30pm 24.3 23.8 15.0 56 5.6 NNW 11 11 6 6 1016.9 - 0.0
25/07:00pm 24.8 24.3 14.9 54 5.9 NNW 11 13 6 7 1016.6 - 0.0
25/06:30pm 26.3 25.7 14.7 48 7.0 NNW 11 13 6 7 1016.3 - 0.0
25/06:00pm 28.9 28.5 15.1 43 8.4 N 11 13 6 7 1016.1 1016.0 0.0
25/05:30pm 30.2 29.2 14.7 39 9.4 N 13 19 7 10 1015.9 - 0.0
25/05:00pm 30.7 29.8 14.8 38 9.7 NNE 13 20 7 11 1015.6 - 0.0
25/04:30pm 31.2 30.1 14.4 36 10.2 NNE 13 20 7 11 1015.6 - 0.0
25/04:00pm 31.2 29.9 14.8 37 10.0 NNE 15 22 8 12 1015.5 - 0.0
25/03:30pm 31.9 30.7 15.0 36 10.4 NNE 15 26 8 14 1015.7 - 0.0
25/03:00pm 31.6 29.3 14.7 36 10.3 NNE 20 33 11 18 1016.0 1015.9 0.0
25/02:30pm 31.7 29.5 14.8 36 10.4 NE 20 30 11 16 1016.0 - 0.0
25/02:00pm 31.1 29.0 15.1 38 9.8 NE 20 30 11 16 1016.4 - 0.0
25/01:30pm 30.8 28.8 15.6 39 9.4 NE 20 30 11 16 1016.9 - 0.0
25/01:00pm 30.5 28.6 15.8 41 9.1 ENE 20 28 11 15 1017.7 - 0.0
25/12:30pm 30.2 27.8 15.5 41 9.1 ENE 22 30 12 16 1018.2 - 0.0
25/12:00pm 29.8 27.6 15.9 43 8.6 E 22 30 12 16 1018.6 1018.5 0.0
25/11:30am 28.8 24.8 15.3 43 8.3 ENE 30 35 16 19 1019.0 - 0.0
25/11:00am 28.8 26.0 15.3 43 8.3 E 24 33 13 18 1019.3 - 0.0
25/10:30am 27.8 24.3 14.4 43 8.0 ENE 26 32 14 17 1019.4 - 0.0
25/10:00am 26.9 23.0 14.3 46 7.5 E 28 35 15 19 1019.6 - 0.0
25/09:30am 25.2 20.0 11.7 43 7.7 E 30 35 16 19 1019.7 - 0.0
25/09:00am 23.9 20.1 9.9 41 7.6 ESE 20 28 11 15 1019.5 1019.4 0.0
25/08:30am 22.2 17.9 6.8 37 7.9 SE 19 24 10 13 1019.3 - 0.0
25/08:00am 19.7 15.3 4.6 37 7.3 SSE 17 20 9 11 1019.1 - 0.0
25/07:30am 17.4 12.9 4.4 42 6.1 SSE 17 19 9 10 1018.6 - 0.0
25/07:00am 17.0 12.5 4.3 43 6.0 SE 17 20 9 11 1018.2 - 0.0
25/06:30am 16.6 12.2 4.6 45 5.7 SSE 17 20 9 11 1018.2 - 0.0
25/06:00am 16.5 12.1 4.9 46 5.5 SE 17 20 9 11 1018.0 1017.9 0.0
25/05:30am 15.8 12.3 5.4 50 5.0 SSE 13 15 7 8 1017.8 - 0.0
25/05:00am 16.3 12.8 5.6 49 5.1 S 13 15 7 8 1017.9 - 0.0
25/04:30am 17.0 13.6 5.9 48 5.4 S 13 15 7 8 1017.5 - 0.0
25/04:00am 17.2 14.2 7.5 53 4.9 S 13 13 7 7 1017.5 - 0.0
25/03:30am 17.6 14.8 8.5 55 4.7 S 13 15 7 8 1017.3 - 0.0
25/03:00am 17.9 15.4 9.8 59 4.3 S 13 15 7 8 1017.5 1017.4 0.0
25/02:30am 17.5 15.5 10.1 62 3.9 S 11 11 6 6 1017.6 - 0.0
25/02:00am 18.9 16.8 11.0 60 4.3 SSE 13 15 7 8 1017.7 - 0.0
25/01:30am 18.9 17.5 13.5 71 3.1 S 13 15 7 8 1017.8 - 0.0
25/01:00am 17.7 16.8 13.8 78 2.2 SSW 11 13 6 7 1018.1 - 0.0
25/12:30am 18.1 17.8 14.4 79 2.1 SSW 9 11 5 6 1018.2 - 0.0
25/12:00am 18.3 17.6 14.2 77 2.3 SSW 11 13 6 7 1018.3 1018.2 0.0
 
Date/Time
EST
Temp
°C
App
Temp
°C
Dew
Point
Rel
Hum
%
Delta-T
°C
Wind Press
QNH
hPa
Press
MSL
hPa
Rain
since 9 am
mm
Dir
 
Spd
km/h
Gust
km/h
Spd
kts
Gust
kts
24/11:30pm 19.0 18.8 14.7 76 2.5 SW 9 11 5 6 1018.2 - 0.0
24/11:00pm 19.1 18.8 13.3 69 3.3 W 7 9 4 5 1018.1 - 0.0
24/10:30pm 19.0 18.9 13.8 72 3.0 WNW 7 9 4 5 1017.8 - 0.0
24/10:00pm 19.6 19.4 14.6 73 2.9 WNW 9 9 5 5 1017.7 - 0.0

Other Formats:

Comma delimited format used in spreadsheet applications
http://www.bom.gov.au/fwo/IDQ60801/IDQ60801.94260.axf

JavaScript Object Notation format (JSON) in row-major order
http://www.bom.gov.au/fwo/IDQ60801/IDQ60801.94260.json